sensor_id;sensor_type;location;lat;lon;timestamp;temperature;humidity
49579;DHT22;35483;50.828;3.228;2023-03-31T00:00:33;13.10;99.90
49579;DHT22;35483;50.828;3.228;2023-03-31T00:02:58;13.00;99.90
49579;DHT22;35483;50.828;3.228;2023-03-31T00:05:25;12.90;99.90
49579;DHT22;35483;50.828;3.228;2023-03-31T00:07:57;12.90;99.90
49579;DHT22;35483;50.828;3.228;2023-03-31T00:10:30;12.80;99.90
49579;DHT22;35483;50.828;3.228;2023-03-31T00:13:00;12.80;99.90
49579;DHT22;35483;50.828;3.228;2023-03-31T00:15:26;12.70;99.90
49579;DHT22;35483;50.828;3.228;2023-03-31T00:17:53;12.70;99.90
49579;DHT22;35483;50.828;3.228;2023-03-31T00:20:19;12.70;99.90
49579;DHT22;35483;50.828;3.228;2023-03-31T00:22:45;12.70;99.90
49579;DHT22;35483;50.828;3.228;2023-03-31T00:25:14;12.70;99.90
49579;DHT22;35483;50.828;3.228;2023-03-31T00:27:44;12.70;99.90
49579;DHT22;35483;50.828;3.228;2023-03-31T00:30:12;12.70;99.90
49579;DHT22;35483;50.828;3.228;2023-03-31T00:32:38;12.70;99.90
49579;DHT22;35483;50.828;3.228;2023-03-31T00:35:04;12.70;99.90
49579;DHT22;35483;50.828;3.228;2023-03-31T00:37:30;12.70;99.90
49579;DHT22;35483;50.828;3.228;2023-03-31T00:39:58;12.60;99.90
49579;DHT22;35483;50.828;3.228;2023-03-31T00:42:24;12.70;99.90
49579;DHT22;35483;50.828;3.228;2023-03-31T00:47:49;12.70;99.90
49579;DHT22;35483;50.828;3.228;2023-03-31T00:50:19;12.60;99.90
49579;DHT22;35483;50.828;3.228;2023-03-31T00:53:01;12.60;99.90
49579;DHT22;35483;50.828;3.228;2023-03-31T00:55:35;12.60;99.90
49579;DHT22;35483;50.828;3.228;2023-03-31T00:58:02;12.60;99.90
49579;DHT22;35483;50.828;3.228;2023-03-31T01:00:30;12.70;99.90
49579;DHT22;35483;50.828;3.228;2023-03-31T01:02:58;12.70;99.90
49579;DHT22;35483;50.828;3.228;2023-03-31T01:05:56;12.70;99.90
49579;DHT22;35483;50.828;3.228;2023-03-31T01:08:26;12.70;99.90
49579;DHT22;35483;50.828;3.228;2023-03-31T01:10:59;12.70;99.90
49579;DHT22;35483;50.828;3.228;2023-03-31T01:13:27;12.70;99.90
49579;DHT22;35483;50.828;3.228;2023-03-31T01:15:54;12.70;99.90
49579;DHT22;35483;50.828;3.228;2023-03-31T01:18:20;12.70;99.90
49579;DHT22;35483;50.828;3.228;2023-03-31T01:27:05;12.70;99.90
49579;DHT22;35483;50.828;3.228;2023-03-31T01:41:05;12.60;99.90
49579;DHT22;35483;50.828;3.228;2023-03-31T01:46:36;12.50;99.90
49579;DHT22;35483;50.828;3.228;2023-03-31T01:49:23;12.50;99.90
49579;DHT22;35483;50.828;3.228;2023-03-31T01:51:58;12.50;99.90
49579;DHT22;35483;50.828;3.228;2023-03-31T01:54:46;12.50;99.90
49579;DHT22;35483;50.828;3.228;2023-03-31T01:57:39;12.50;99.90
49579;DHT22;35483;50.828;3.228;2023-03-31T02:00:18;12.40;99.90
49579;DHT22;35483;50.828;3.228;2023-03-31T02:02:48;12.50;99.90
49579;DHT22;35483;50.828;3.228;2023-03-31T02:05:25;12.50;99.90
49579;DHT22;35483;50.828;3.228;2023-03-31T02:07:52;12.50;99.90
49579;DHT22;35483;50.828;3.228;2023-03-31T02:10:21;12.40;99.90
49579;DHT22;35483;50.828;3.228;2023-03-31T02:12:48;12.40;99.90
49579;DHT22;35483;50.828;3.228;2023-03-31T02:15:20;12.40;99.90
49579;DHT22;35483;50.828;3.228;2023-03-31T02:17:48;12.40;99.90
49579;DHT22;35483;50.828;3.228;2023-03-31T02:20:17;12.40;99.90
49579;DHT22;35483;50.828;3.228;2023-03-31T02:22:55;12.40;99.90
49579;DHT22;35483;50.828;3.228;2023-03-31T02:25:26;12.40;99.90
49579;DHT22;35483;50.828;3.228;2023-03-31T02:28:00;12.40;99.90
49579;DHT22;35483;50.828;3.228;2023-03-31T02:30:31;12.30;99.90
49579;DHT22;35483;50.828;3.228;2023-03-31T02:33:01;12.30;99.90
49579;DHT22;35483;50.828;3.228;2023-03-31T02:35:28;12.30;99.90
49579;DHT22;35483;50.828;3.228;2023-03-31T02:37:55;12.30;99.90
49579;DHT22;35483;50.828;3.228;2023-03-31T02:40:23;12.30;99.90
49579;DHT22;35483;50.828;3.228;2023-03-31T02:42:52;12.30;99.90
49579;DHT22;35483;50.828;3.228;2023-03-31T02:45:44;12.30;99.90
49579;DHT22;35483;50.828;3.228;2023-03-31T02:48:14;12.30;99.90
49579;DHT22;35483;50.828;3.228;2023-03-31T02:53:58;12.20;99.90
49579;DHT22;35483;50.828;3.228;2023-03-31T02:56:50;12.20;99.90
49579;DHT22;35483;50.828;3.228;2023-03-31T03:05:23;12.00;99.90
49579;DHT22;35483;50.828;3.228;2023-03-31T03:08:29;12.00;99.90
49579;DHT22;35483;50.828;3.228;2023-03-31T03:11:13;12.00;99.90
49579;DHT22;35483;50.828;3.228;2023-03-31T03:13:53;12.00;99.90
49579;DHT22;35483;50.828;3.228;2023-03-31T03:16:32;12.00;99.90
49579;DHT22;35483;50.828;3.228;2023-03-31T03:19:03;11.90;99.90
49579;DHT22;35483;50.828;3.228;2023-03-31T03:21:29;11.90;99.90
49579;DHT22;35483;50.828;3.228;2023-03-31T03:23:55;11.90;99.90
49579;DHT22;35483;50.828;3.228;2023-03-31T03:26:22;11.80;99.90
49579;DHT22;35483;50.828;3.228;2023-03-31T03:28:54;11.80;99.90
49579;DHT22;35483;50.828;3.228;2023-03-31T03:31:21;11.80;99.90
49579;DHT22;35483;50.828;3.228;2023-03-31T03:33:49;11.80;99.90
49579;DHT22;35483;50.828;3.228;2023-03-31T03:36:15;11.70;99.90
49579;DHT22;35483;50.828;3.228;2023-03-31T03:38:41;11.80;99.90
49579;DHT22;35483;50.828;3.228;2023-03-31T03:41:06;11.70;99.90
49579;DHT22;35483;50.828;3.228;2023-03-31T03:43:32;11.70;99.90
49579;DHT22;35483;50.828;3.228;2023-03-31T03:45:59;11.70;99.90
49579;DHT22;35483;50.828;3.228;2023-03-31T03:48:26;11.60;99.90
49579;DHT22;35483;50.828;3.228;2023-03-31T03:50:52;11.60;99.90
49579;DHT22;35483;50.828;3.228;2023-03-31T03:53:19;11.60;99.90
49579;DHT22;35483;50.828;3.228;2023-03-31T03:55:45;11.60;99.90
49579;DHT22;35483;50.828;3.228;2023-03-31T03:58:14;11.60;99.90
49579;DHT22;35483;50.828;3.228;2023-03-31T04:00:40;11.60;99.90
49579;DHT22;35483;50.828;3.228;2023-03-31T04:03:06;11.60;99.90
49579;DHT22;35483;50.828;3.228;2023-03-31T04:05:31;11.60;99.90
49579;DHT22;35483;50.828;3.228;2023-03-31T04:07:57;11.60;99.90
49579;DHT22;35483;50.828;3.228;2023-03-31T04:10:23;11.60;99.90
49579;DHT22;35483;50.828;3.228;2023-03-31T04:12:48;11.60;99.90
49579;DHT22;35483;50.828;3.228;2023-03-31T04:15:14;11.60;99.90
49579;DHT22;35483;50.828;3.228;2023-03-31T04:17:40;11.60;99.90
49579;DHT22;35483;50.828;3.228;2023-03-31T04:20:07;11.50;99.90
49579;DHT22;35483;50.828;3.228;2023-03-31T04:22:37;11.60;99.90
49579;DHT22;35483;50.828;3.228;2023-03-31T04:25:10;11.50;99.90
49579;DHT22;35483;50.828;3.228;2023-03-31T04:27:49;11.50;99.90
49579;DHT22;35483;50.828;3.228;2023-03-31T04:30:23;11.50;99.90
49579;DHT22;35483;50.828;3.228;2023-03-31T04:32:57;11.50;99.90
49579;DHT22;35483;50.828;3.228;2023-03-31T04:35:26;11.60;99.90
49579;DHT22;35483;50.828;3.228;2023-03-31T04:37:52;11.50;99.90
49579;DHT22;35483;50.828;3.228;2023-03-31T04:40:26;11.50;99.90
49579;DHT22;35483;50.828;3.228;2023-03-31T04:42:51;11.50;99.90
49579;DHT22;35483;50.828;3.228;2023-03-31T04:45:17;11.50;99.90
49579;DHT22;35483;50.828;3.228;2023-03-31T04:47:43;11.50;99.90
49579;DHT22;35483;50.828;3.228;2023-03-31T04:50:10;11.50;99.90
49579;DHT22;35483;50.828;3.228;2023-03-31T04:52:36;11.50;99.90
49579;DHT22;35483;50.828;3.228;2023-03-31T04:55:03;11.50;99.90
49579;DHT22;35483;50.828;3.228;2023-03-31T04:57:29;11.60;99.90
49579;DHT22;35483;50.828;3.228;2023-03-31T04:59:55;11.60;99.90
49579;DHT22;35483;50.828;3.228;2023-03-31T05:02:21;11.70;99.90
49579;DHT22;35483;50.828;3.228;2023-03-31T05:04:50;11.60;99.90
49579;DHT22;35483;50.828;3.228;2023-03-31T05:07:16;11.60;99.90
49579;DHT22;35483;50.828;3.228;2023-03-31T05:09:42;11.70;99.90
49579;DHT22;35483;50.828;3.228;2023-03-31T05:12:08;11.70;99.90
49579;DHT22;35483;50.828;3.228;2023-03-31T05:14:34;11.80;99.90
49579;DHT22;35483;50.828;3.228;2023-03-31T05:17:00;11.80;99.90
49579;DHT22;35483;50.828;3.228;2023-03-31T05:19:26;11.90;99.90
49579;DHT22;35483;50.828;3.228;2023-03-31T05:21:52;11.90;99.90
49579;DHT22;35483;50.828;3.228;2023-03-31T05:24:18;12.00;99.90
49579;DHT22;35483;50.828;3.228;2023-03-31T05:26:43;12.00;99.90
49579;DHT22;35483;50.828;3.228;2023-03-31T05:29:17;12.10;99.90
49579;DHT22;35483;50.828;3.228;2023-03-31T05:31:43;12.10;99.90
49579;DHT22;35483;50.828;3.228;2023-03-31T05:34:11;12.20;99.90
49579;DHT22;35483;50.828;3.228;2023-03-31T05:36:36;12.20;99.90
49579;DHT22;35483;50.828;3.228;2023-03-31T05:39:04;12.20;99.90
49579;DHT22;35483;50.828;3.228;2023-03-31T05:41:29;12.30;99.90
49579;DHT22;35483;50.828;3.228;2023-03-31T05:43:55;12.30;99.90
49579;DHT22;35483;50.828;3.228;2023-03-31T05:46:21;12.30;99.90
49579;DHT22;35483;50.828;3.228;2023-03-31T05:48:47;12.30;99.90
49579;DHT22;35483;50.828;3.228;2023-03-31T05:51:13;12.30;99.90
49579;DHT22;35483;50.828;3.228;2023-03-31T05:53:39;12.30;99.90
49579;DHT22;35483;50.828;3.228;2023-03-31T05:56:06;12.30;99.90
49579;DHT22;35483;50.828;3.228;2023-03-31T05:58:36;12.40;99.90
49579;DHT22;35483;50.828;3.228;2023-03-31T06:01:06;12.40;99.90
49579;DHT22;35483;50.828;3.228;2023-03-31T06:03:34;12.30;99.90
49579;DHT22;35483;50.828;3.228;2023-03-31T06:06:00;12.30;99.90
49579;DHT22;35483;50.828;3.228;2023-03-31T06:08:30;12.40;99.90
49579;DHT22;35483;50.828;3.228;2023-03-31T06:10:56;12.40;99.90
49579;DHT22;35483;50.828;3.228;2023-03-31T06:13:22;12.40;99.90
49579;DHT22;35483;50.828;3.228;2023-03-31T06:15:58;12.40;99.90
49579;DHT22;35483;50.828;3.228;2023-03-31T06:18:26;12.50;99.90
49579;DHT22;35483;50.828;3.228;2023-03-31T06:20:54;12.50;99.90
49579;DHT22;35483;50.828;3.228;2023-03-31T06:23:20;12.50;99.90
49579;DHT22;35483;50.828;3.228;2023-03-31T06:25:46;12.50;99.90
49579;DHT22;35483;50.828;3.228;2023-03-31T06:28:13;12.50;99.90
49579;DHT22;35483;50.828;3.228;2023-03-31T06:30:39;12.50;99.90
49579;DHT22;35483;50.828;3.228;2023-03-31T06:33:04;12.60;99.90
49579;DHT22;35483;50.828;3.228;2023-03-31T06:35:30;12.60;99.90
49579;DHT22;35483;50.828;3.228;2023-03-31T06:37:56;12.70;99.90
49579;DHT22;35483;50.828;3.228;2023-03-31T06:40:22;12.60;99.90
49579;DHT22;35483;50.828;3.228;2023-03-31T06:42:48;12.60;99.90
49579;DHT22;35483;50.828;3.228;2023-03-31T06:45:13;12.70;99.90
49579;DHT22;35483;50.828;3.228;2023-03-31T06:47:39;12.60;99.90
49579;DHT22;35483;50.828;3.228;2023-03-31T06:50:08;12.60;99.90
49579;DHT22;35483;50.828;3.228;2023-03-31T06:52:35;12.70;99.90
49579;DHT22;35483;50.828;3.228;2023-03-31T06:55:01;12.70;99.90
49579;DHT22;35483;50.828;3.228;2023-03-31T06:57:28;12.70;99.90
49579;DHT22;35483;50.828;3.228;2023-03-31T06:59:54;12.80;99.90
49579;DHT22;35483;50.828;3.228;2023-03-31T07:02:20;12.80;99.90
49579;DHT22;35483;50.828;3.228;2023-03-31T07:04:46;12.70;99.90
49579;DHT22;35483;50.828;3.228;2023-03-31T07:07:12;12.80;99.90
49579;DHT22;35483;50.828;3.228;2023-03-31T07:09:37;12.90;99.90
49579;DHT22;35483;50.828;3.228;2023-03-31T07:12:03;12.90;99.90
49579;DHT22;35483;50.828;3.228;2023-03-31T07:14:30;12.90;99.90
49579;DHT22;35483;50.828;3.228;2023-03-31T07:16:56;12.90;99.90
49579;DHT22;35483;50.828;3.228;2023-03-31T07:19:22;12.90;99.90
49579;DHT22;35483;50.828;3.228;2023-03-31T07:21:48;12.90;99.90
49579;DHT22;35483;50.828;3.228;2023-03-31T07:24:13;12.90;99.90
49579;DHT22;35483;50.828;3.228;2023-03-31T07:26:39;12.90;99.90
49579;DHT22;35483;50.828;3.228;2023-03-31T07:29:05;12.90;99.90
49579;DHT22;35483;50.828;3.228;2023-03-31T07:31:31;12.90;99.90
49579;DHT22;35483;50.828;3.228;2023-03-31T07:33:57;12.90;99.90
49579;DHT22;35483;50.828;3.228;2023-03-31T07:36:22;12.90;99.90
49579;DHT22;35483;50.828;3.228;2023-03-31T07:38:48;12.90;99.90
49579;DHT22;35483;50.828;3.228;2023-03-31T07:41:19;13.00;99.90
49579;DHT22;35483;50.828;3.228;2023-03-31T07:43:46;13.00;99.90
49579;DHT22;35483;50.828;3.228;2023-03-31T07:46:21;13.10;99.90
49579;DHT22;35483;50.828;3.228;2023-03-31T07:48:47;13.20;99.90
49579;DHT22;35483;50.828;3.228;2023-03-31T07:51:19;13.20;99.90
49579;DHT22;35483;50.828;3.228;2023-03-31T07:53:46;13.20;99.90
49579;DHT22;35483;50.828;3.228;2023-03-31T07:56:14;13.20;99.90
49579;DHT22;35483;50.828;3.228;2023-03-31T07:58:42;13.30;99.90
49579;DHT22;35483;50.828;3.228;2023-03-31T08:01:08;13.30;99.90
49579;DHT22;35483;50.828;3.228;2023-03-31T08:03:34;13.20;99.90
49579;DHT22;35483;50.828;3.228;2023-03-31T08:05:59;13.20;99.90
49579;DHT22;35483;50.828;3.228;2023-03-31T08:08:25;13.30;99.90
49579;DHT22;35483;50.828;3.228;2023-03-31T08:10:51;13.30;99.90
49579;DHT22;35483;50.828;3.228;2023-03-31T08:13:17;13.30;99.90
49579;DHT22;35483;50.828;3.228;2023-03-31T08:15:43;13.30;99.90
49579;DHT22;35483;50.828;3.228;2023-03-31T08:18:08;13.30;99.90
49579;DHT22;35483;50.828;3.228;2023-03-31T08:20:34;13.20;99.90
49579;DHT22;35483;50.828;3.228;2023-03-31T08:23:00;13.30;99.90
49579;DHT22;35483;50.828;3.228;2023-03-31T08:25:26;13.40;99.90
49579;DHT22;35483;50.828;3.228;2023-03-31T08:27:51;13.50;99.90
49579;DHT22;35483;50.828;3.228;2023-03-31T08:30:18;13.50;99.90
49579;DHT22;35483;50.828;3.228;2023-03-31T08:32:45;13.40;99.90
49579;DHT22;35483;50.828;3.228;2023-03-31T08:35:11;13.50;99.90
49579;DHT22;35483;50.828;3.228;2023-03-31T08:37:37;13.40;99.90
49579;DHT22;35483;50.828;3.228;2023-03-31T08:40:04;13.40;99.90
49579;DHT22;35483;50.828;3.228;2023-03-31T08:42:42;13.40;99.90
49579;DHT22;35483;50.828;3.228;2023-03-31T08:45:25;13.40;99.90
49579;DHT22;35483;50.828;3.228;2023-03-31T08:47:59;13.30;99.90
49579;DHT22;35483;50.828;3.228;2023-03-31T08:50:30;13.30;99.90
49579;DHT22;35483;50.828;3.228;2023-03-31T08:53:03;13.30;99.90
49579;DHT22;35483;50.828;3.228;2023-03-31T08:55:53;13.30;99.90
49579;DHT22;35483;50.828;3.228;2023-03-31T09:07:22;13.40;99.90
49579;DHT22;35483;50.828;3.228;2023-03-31T09:18:27;13.30;99.90
49579;DHT22;35483;50.828;3.228;2023-03-31T09:21:33;13.40;99.90
49579;DHT22;35483;50.828;3.228;2023-03-31T09:27:01;13.40;99.90
49579;DHT22;35483;50.828;3.228;2023-03-31T09:29:41;13.40;99.90
49579;DHT22;35483;50.828;3.228;2023-03-31T09:32:30;13.40;99.90
49579;DHT22;35483;50.828;3.228;2023-03-31T09:35:01;13.50;99.90
49579;DHT22;35483;50.828;3.228;2023-03-31T09:37:30;13.50;99.90
49579;DHT22;35483;50.828;3.228;2023-03-31T09:40:03;13.40;99.90
49579;DHT22;35483;50.828;3.228;2023-03-31T09:42:33;13.30;99.90
49579;DHT22;35483;50.828;3.228;2023-03-31T09:44:59;13.30;99.90
49579;DHT22;35483;50.828;3.228;2023-03-31T09:47:34;13.30;99.90
49579;DHT22;35483;50.828;3.228;2023-03-31T09:50:05;13.40;99.90
49579;DHT22;35483;50.828;3.228;2023-03-31T09:52:37;13.30;99.90
49579;DHT22;35483;50.828;3.228;2023-03-31T09:55:22;13.40;99.90
49579;DHT22;35483;50.828;3.228;2023-03-31T09:57:49;13.30;99.90
49579;DHT22;35483;50.828;3.228;2023-03-31T10:00:20;13.20;99.90
49579;DHT22;35483;50.828;3.228;2023-03-31T10:03:00;13.20;99.90
49579;DHT22;35483;50.828;3.228;2023-03-31T10:05:47;13.20;99.90
49579;DHT22;35483;50.828;3.228;2023-03-31T10:10:54;13.20;99.90
49579;DHT22;35483;50.828;3.228;2023-03-31T10:13:27;13.20;99.90
49579;DHT22;35483;50.828;3.228;2023-03-31T10:16:02;13.20;99.90
49579;DHT22;35483;50.828;3.228;2023-03-31T10:18:36;13.20;99.90
49579;DHT22;35483;50.828;3.228;2023-03-31T10:21:05;13.10;99.90
49579;DHT22;35483;50.828;3.228;2023-03-31T10:23:33;12.90;99.90
49579;DHT22;35483;50.828;3.228;2023-03-31T10:26:00;12.90;99.90
49579;DHT22;35483;50.828;3.228;2023-03-31T10:28:30;12.90;99.90
49579;DHT22;35483;50.828;3.228;2023-03-31T10:30:58;13.00;99.90
49579;DHT22;35483;50.828;3.228;2023-03-31T10:33:30;13.00;99.90
49579;DHT22;35483;50.828;3.228;2023-03-31T10:36:07;13.10;99.90
49579;DHT22;35483;50.828;3.228;2023-03-31T10:38:36;13.00;99.90
49579;DHT22;35483;50.828;3.228;2023-03-31T10:41:05;13.10;99.90
49579;DHT22;35483;50.828;3.228;2023-03-31T10:43:42;13.20;99.90
49579;DHT22;35483;50.828;3.228;2023-03-31T10:46:08;13.20;99.90
49579;DHT22;35483;50.828;3.228;2023-03-31T10:48:37;13.40;99.90
49579;DHT22;35483;50.828;3.228;2023-03-31T10:51:11;13.40;99.90
49579;DHT22;35483;50.828;3.228;2023-03-31T10:53:48;13.40;99.90
49579;DHT22;35483;50.828;3.228;2023-03-31T10:56:27;13.50;99.90
49579;DHT22;35483;50.828;3.228;2023-03-31T10:59:22;13.50;99.90
49579;DHT22;35483;50.828;3.228;2023-03-31T11:07:37;13.50;99.90
49579;DHT22;35483;50.828;3.228;2023-03-31T11:15:32;13.40;99.90
49579;DHT22;35483;50.828;3.228;2023-03-31T11:21:22;13.30;99.90
49579;DHT22;35483;50.828;3.228;2023-03-31T11:24:41;13.20;99.90
49579;DHT22;35483;50.828;3.228;2023-03-31T11:38:23;13.20;99.90
49579;DHT22;35483;50.828;3.228;2023-03-31T11:40:58;13.10;99.90
49579;DHT22;35483;50.828;3.228;2023-03-31T11:43:31;13.10;99.90
49579;DHT22;35483;50.828;3.228;2023-03-31T11:46:19;13.20;99.90
49579;DHT22;35483;50.828;3.228;2023-03-31T11:48:53;13.30;99.90
49579;DHT22;35483;50.828;3.228;2023-03-31T11:51:33;13.40;99.90
49579;DHT22;35483;50.828;3.228;2023-03-31T11:54:02;13.50;99.90
49579;DHT22;35483;50.828;3.228;2023-03-31T11:56:38;13.50;99.90
49579;DHT22;35483;50.828;3.228;2023-03-31T11:59:06;13.60;99.90
49579;DHT22;35483;50.828;3.228;2023-03-31T12:04:14;13.50;99.90
49579;DHT22;35483;50.828;3.228;2023-03-31T12:06:44;13.50;99.90
49579;DHT22;35483;50.828;3.228;2023-03-31T12:12:06;13.60;99.90
49579;DHT22;35483;50.828;3.228;2023-03-31T12:14:47;13.60;99.90
49579;DHT22;35483;50.828;3.228;2023-03-31T12:17:22;13.60;99.90
49579;DHT22;35483;50.828;3.228;2023-03-31T12:19:53;13.60;99.90
49579;DHT22;35483;50.828;3.228;2023-03-31T12:22:33;13.50;99.90
49579;DHT22;35483;50.828;3.228;2023-03-31T12:25:00;13.50;99.90
49579;DHT22;35483;50.828;3.228;2023-03-31T12:27:36;13.40;99.90
49579;DHT22;35483;50.828;3.228;2023-03-31T12:30:31;13.40;99.90
49579;DHT22;35483;50.828;3.228;2023-03-31T12:33:21;13.50;99.90
49579;DHT22;35483;50.828;3.228;2023-03-31T12:52:25;13.40;99.90
49579;DHT22;35483;50.828;3.228;2023-03-31T12:57:34;13.50;99.90
49579;DHT22;35483;50.828;3.228;2023-03-31T13:02:47;13.50;99.90
49579;DHT22;35483;50.828;3.228;2023-03-31T13:08:02;13.30;99.90
49579;DHT22;35483;50.828;3.228;2023-03-31T13:10:31;13.20;99.90
49579;DHT22;35483;50.828;3.228;2023-03-31T13:13:05;13.10;99.90
49579;DHT22;35483;50.828;3.228;2023-03-31T13:15:37;13.00;99.90
49579;DHT22;35483;50.828;3.228;2023-03-31T13:18:05;13.10;99.90
49579;DHT22;35483;50.828;3.228;2023-03-31T13:20:35;13.10;99.90
49579;DHT22;35483;50.828;3.228;2023-03-31T13:25:40;13.00;99.90
49579;DHT22;35483;50.828;3.228;2023-03-31T13:33:45;13.00;99.90
49579;DHT22;35483;50.828;3.228;2023-03-31T13:36:44;12.90;99.90
49579;DHT22;35483;50.828;3.228;2023-03-31T13:48:01;12.70;99.90
49579;DHT22;35483;50.828;3.228;2023-03-31T14:01:09;12.80;99.90
49579;DHT22;35483;50.828;3.228;2023-03-31T14:06:43;12.90;99.90
49579;DHT22;35483;50.828;3.228;2023-03-31T14:09:32;13.00;99.90
49579;DHT22;35483;50.828;3.228;2023-03-31T14:11:59;13.10;99.90
49579;DHT22;35483;50.828;3.228;2023-03-31T14:14:25;13.10;99.90
49579;DHT22;35483;50.828;3.228;2023-03-31T14:17:02;13.10;99.90
49579;DHT22;35483;50.828;3.228;2023-03-31T14:22:21;13.10;99.90
49579;DHT22;35483;50.828;3.228;2023-03-31T14:38:27;12.80;99.90
49579;DHT22;35483;50.828;3.228;2023-03-31T14:40:54;12.80;99.90
49579;DHT22;35483;50.828;3.228;2023-03-31T14:43:25;12.80;99.90
49579;DHT22;35483;50.828;3.228;2023-03-31T14:46:03;12.70;99.90
49579;DHT22;35483;50.828;3.228;2023-03-31T14:48:36;12.70;99.90
49579;DHT22;35483;50.828;3.228;2023-03-31T14:51:08;12.70;99.90
49579;DHT22;35483;50.828;3.228;2023-03-31T14:53:34;12.70;99.90
49579;DHT22;35483;50.828;3.228;2023-03-31T14:56:07;12.70;99.90
49579;DHT22;35483;50.828;3.228;2023-03-31T14:58:38;12.80;99.90
49579;DHT22;35483;50.828;3.228;2023-03-31T15:01:07;12.90;99.90
49579;DHT22;35483;50.828;3.228;2023-03-31T15:03:34;12.90;99.90
49579;DHT22;35483;50.828;3.228;2023-03-31T15:06:02;12.90;99.90
49579;DHT22;35483;50.828;3.228;2023-03-31T15:08:30;12.90;99.90
49579;DHT22;35483;50.828;3.228;2023-03-31T15:11:01;13.00;99.90
49579;DHT22;35483;50.828;3.228;2023-03-31T15:13:33;13.00;99.90
49579;DHT22;35483;50.828;3.228;2023-03-31T15:18:58;13.10;99.90
49579;DHT22;35483;50.828;3.228;2023-03-31T15:21:26;13.10;99.90
49579;DHT22;35483;50.828;3.228;2023-03-31T15:23:54;13.20;99.90
49579;DHT22;35483;50.828;3.228;2023-03-31T15:26:25;13.20;99.90
49579;DHT22;35483;50.828;3.228;2023-03-31T15:31:47;13.20;99.90
49579;DHT22;35483;50.828;3.228;2023-03-31T15:34:30;13.20;99.90
49579;DHT22;35483;50.828;3.228;2023-03-31T15:36:58;13.20;99.90
49579;DHT22;35483;50.828;3.228;2023-03-31T15:39:26;13.20;99.90
49579;DHT22;35483;50.828;3.228;2023-03-31T15:41:53;13.20;99.90
49579;DHT22;35483;50.828;3.228;2023-03-31T15:44:47;13.20;99.90
49579;DHT22;35483;50.828;3.228;2023-03-31T15:49:56;13.20;99.90
49579;DHT22;35483;50.828;3.228;2023-03-31T15:52:33;13.10;99.90
49579;DHT22;35483;50.828;3.228;2023-03-31T15:55:00;13.10;99.90
49579;DHT22;35483;50.828;3.228;2023-03-31T15:57:34;13.00;99.90
49579;DHT22;35483;50.828;3.228;2023-03-31T16:00:01;13.00;99.90
49579;DHT22;35483;50.828;3.228;2023-03-31T16:02:38;12.90;99.90
49579;DHT22;35483;50.828;3.228;2023-03-31T16:05:06;12.90;99.90
49579;DHT22;35483;50.828;3.228;2023-03-31T16:07:44;12.70;99.90
49579;DHT22;35483;50.828;3.228;2023-03-31T16:10:18;12.70;99.90
49579;DHT22;35483;50.828;3.228;2023-03-31T16:12:56;12.80;99.90
49579;DHT22;35483;50.828;3.228;2023-03-31T16:15:31;12.80;99.90
49579;DHT22;35483;50.828;3.228;2023-03-31T16:18:12;12.80;99.90
49579;DHT22;35483;50.828;3.228;2023-03-31T16:20:43;12.80;99.90
49579;DHT22;35483;50.828;3.228;2023-03-31T16:23:20;12.70;99.90
49579;DHT22;35483;50.828;3.228;2023-03-31T16:25:49;12.80;99.90
49579;DHT22;35483;50.828;3.228;2023-03-31T16:28:27;12.90;99.90
49579;DHT22;35483;50.828;3.228;2023-03-31T16:30:55;12.80;99.90
49579;DHT22;35483;50.828;3.228;2023-03-31T16:33:28;12.80;99.90
49579;DHT22;35483;50.828;3.228;2023-03-31T16:35:56;12.70;99.90
49579;DHT22;35483;50.828;3.228;2023-03-31T16:38:25;12.80;99.90
49579;DHT22;35483;50.828;3.228;2023-03-31T16:40:56;12.80;99.90
49579;DHT22;35483;50.828;3.228;2023-03-31T16:43:29;12.70;99.90
49579;DHT22;35483;50.828;3.228;2023-03-31T16:45:57;12.60;99.90
49579;DHT22;35483;50.828;3.228;2023-03-31T16:48:25;12.60;99.90
49579;DHT22;35483;50.828;3.228;2023-03-31T16:50:53;12.50;99.90
49579;DHT22;35483;50.828;3.228;2023-03-31T16:53:21;12.50;99.90
49579;DHT22;35483;50.828;3.228;2023-03-31T16:55:47;12.40;99.90
49579;DHT22;35483;50.828;3.228;2023-03-31T16:58:14;12.50;99.90
49579;DHT22;35483;50.828;3.228;2023-03-31T17:00:40;12.50;99.90
49579;DHT22;35483;50.828;3.228;2023-03-31T17:03:07;12.60;99.90
49579;DHT22;35483;50.828;3.228;2023-03-31T17:05:45;12.50;99.90
49579;DHT22;35483;50.828;3.228;2023-03-31T17:08:12;12.50;99.90
49579;DHT22;35483;50.828;3.228;2023-03-31T17:10:39;12.50;99.90
49579;DHT22;35483;50.828;3.228;2023-03-31T17:13:06;12.60;99.90
49579;DHT22;35483;50.828;3.228;2023-03-31T17:15:32;12.60;99.90
49579;DHT22;35483;50.828;3.228;2023-03-31T17:18:01;12.60;99.90
49579;DHT22;35483;50.828;3.228;2023-03-31T17:20:28;12.60;99.90
49579;DHT22;35483;50.828;3.228;2023-03-31T17:22:55;12.60;99.90
49579;DHT22;35483;50.828;3.228;2023-03-31T17:25:21;12.60;99.90
49579;DHT22;35483;50.828;3.228;2023-03-31T17:27:47;12.70;99.90
49579;DHT22;35483;50.828;3.228;2023-03-31T17:30:14;12.60;99.90
49579;DHT22;35483;50.828;3.228;2023-03-31T17:32:40;12.60;99.90
49579;DHT22;35483;50.828;3.228;2023-03-31T17:35:06;12.60;99.90
49579;DHT22;35483;50.828;3.228;2023-03-31T17:37:33;12.60;99.90
49579;DHT22;35483;50.828;3.228;2023-03-31T17:39:59;12.60;99.90
49579;DHT22;35483;50.828;3.228;2023-03-31T17:42:25;12.60;99.90
49579;DHT22;35483;50.828;3.228;2023-03-31T17:44:51;12.50;99.90
49579;DHT22;35483;50.828;3.228;2023-03-31T17:47:17;12.50;99.90
49579;DHT22;35483;50.828;3.228;2023-03-31T17:49:45;12.40;99.90
49579;DHT22;35483;50.828;3.228;2023-03-31T17:52:11;12.40;99.90
49579;DHT22;35483;50.828;3.228;2023-03-31T17:54:36;12.40;99.90
49579;DHT22;35483;50.828;3.228;2023-03-31T17:57:02;12.40;99.90
49579;DHT22;35483;50.828;3.228;2023-03-31T17:59:28;12.50;99.90
49579;DHT22;35483;50.828;3.228;2023-03-31T18:01:54;12.50;99.90
49579;DHT22;35483;50.828;3.228;2023-03-31T18:04:20;12.50;99.90
49579;DHT22;35483;50.828;3.228;2023-03-31T18:06:46;12.50;99.90
49579;DHT22;35483;50.828;3.228;2023-03-31T18:09:13;12.40;99.90
49579;DHT22;35483;50.828;3.228;2023-03-31T18:11:39;12.40;99.90
49579;DHT22;35483;50.828;3.228;2023-03-31T18:14:05;12.40;99.90
49579;DHT22;35483;50.828;3.228;2023-03-31T18:16:32;12.30;99.90
49579;DHT22;35483;50.828;3.228;2023-03-31T18:19:00;12.30;99.90
49579;DHT22;35483;50.828;3.228;2023-03-31T18:21:26;12.20;99.90
49579;DHT22;35483;50.828;3.228;2023-03-31T18:23:52;12.30;99.90
49579;DHT22;35483;50.828;3.228;2023-03-31T18:26:23;12.20;99.90
49579;DHT22;35483;50.828;3.228;2023-03-31T18:28:50;12.10;99.90
49579;DHT22;35483;50.828;3.228;2023-03-31T18:31:17;12.00;99.90
49579;DHT22;35483;50.828;3.228;2023-03-31T18:33:43;12.00;99.90
49579;DHT22;35483;50.828;3.228;2023-03-31T18:36:17;12.00;99.90